Yangon International Airport
VYYY : now visible

Airfield :











YOU CAN JOIN US ON...

 
LOGIN :

Register | Disclaimer

   EN    FR    IT 

 









Legend :    VFR   Marginal VFR   IFR   Intensive IFR   Very Intensive IFR
Visi :
Ceiling :
>= 8 km
>= 3000ft
5 to 8 km
1000 to 3000 ft
1500m to 5 km
500 to 1000 ft
800 to 1500m
200 to 500 ft
< 800m
< 200 ft
Symbols :   Thunderstorms  Fog  Heavy snow  Heavy precipitations  Wind > 20 kt






- Airport Elevation : 109 ft
- IATA code : RGN


VYYY - Yangon International

CURRENT METAR :
  • 240600Z 02004KT 7000 NSC 30/17 Q1013 NOSIG

EXPIRED METARs :
  • 240530Z 02009KT 7000 NSC 30/17 Q1013 NOSIG
  • 240500Z 33008KT 7000 NSC 28/18 Q1013 NOSIG
  • 240430Z 01004KT 7000 NSC 27/17 Q1014 NOSIG
  • 240400Z 35007KT 7000 NSC 26/18 Q1014 NOSIG
  • 240330Z 02006KT 7000 NSC 23/17 Q1014 NOSIG

TAF TAF VYYY
Valid from the 24 at 06:00 until the 25 at 06:00 UTC


240500Z 2406/2506 32008KT 7000 SCT250
TEMPO 2406/2412 29008KT 310V070 6000 HZ SCT220
BECMG 2413/2415 26006KT 280V360



MET'MAP, your aeronautical weather chart ! - Copyright ORBIFLY December 2007 - Disclaimer

ORBIFLY MET'MAP TEAM :

Programming & Development : Alexandra Zaïnal
Concept & original design : Baudouin d'Aumeries
Assistance for programming : Marc-Olivier Méhu
Technical & hardware support : Manuel Goepfert

Contact : metmap@orbifly.com




SOURCES & CREDITS :

   NOAA       Earth
Advisory